createdAt,value
2022-09-24T00:01:13.943Z,6.78
2022-09-24T00:04:01.649Z,6.95
2022-09-24T00:06:32.843Z,7.50
2022-09-24T00:09:02.195Z,5.80
2022-09-24T00:11:32.127Z,8.20
2022-09-24T00:14:01.603Z,7.45
2022-09-24T00:16:33.433Z,8.38
2022-09-24T00:19:06.532Z,6.18
2022-09-24T00:21:37.106Z,5.40
2022-09-24T00:24:08.701Z,6.40
2022-09-24T00:26:51.023Z,7.10
2022-09-24T00:29:26.239Z,6.78
2022-09-24T00:31:55.835Z,5.60
2022-09-24T00:34:32.590Z,6.50
2022-09-24T00:37:01.732Z,6.15
2022-09-24T00:39:31.042Z,7.95
2022-09-24T00:42:00.157Z,6.72
2022-09-24T00:44:53.832Z,5.55
2022-09-24T00:47:36.616Z,6.65
2022-09-24T00:50:17.622Z,8.35
2022-09-24T00:52:56.222Z,4.65
2022-09-24T00:55:26.101Z,4.88
2022-09-24T00:58:03.716Z,2.95
2022-09-24T01:00:33.810Z,4.32
2022-09-24T01:03:11.810Z,4.90
2022-09-24T01:05:43.237Z,3.40
2022-09-24T01:08:21.058Z,4.35
2022-09-24T01:11:02.952Z,4.93
2022-09-24T01:16:23.226Z,2.20
2022-09-24T01:19:02.735Z,3.67
2022-09-24T01:21:40.548Z,2.03
2022-09-24T01:24:48.503Z,1.48
2022-09-24T01:27:23.548Z,1.90
2022-09-24T01:30:04.425Z,2.85
2022-09-24T01:32:38.950Z,1.57
2022-09-24T01:35:18.952Z,2.55
2022-09-24T01:37:53.435Z,1.67
2022-09-24T01:40:26.647Z,1.95
2022-09-24T01:42:58.361Z,2.00
2022-09-24T01:48:07.840Z,2.38
2022-09-24T01:50:42.245Z,1.52
2022-09-24T01:53:18.566Z,1.75
2022-09-24T01:55:52.118Z,1.73
2022-09-24T01:58:27.766Z,2.13
2022-09-24T02:01:10.694Z,1.17
2022-09-24T02:03:46.686Z,2.45
2022-09-24T02:06:19.642Z,1.88
2022-09-24T02:08:50.111Z,1.52
2022-09-24T02:11:22.926Z,1.67
2022-09-24T02:14:00.342Z,1.85
2022-09-24T02:16:35.957Z,2.38
2022-09-24T02:19:09.740Z,1.42
2022-09-24T02:21:40.812Z,1.75
2022-09-24T02:24:15.637Z,1.67
2022-09-24T02:26:50.230Z,1.67
2022-09-24T02:29:20.077Z,2.38
2022-09-24T02:31:59.398Z,1.10
2022-09-24T02:34:33.246Z,0.90
2022-09-24T02:37:07.805Z,1.25
2022-09-24T02:39:36.841Z,1.02
2022-09-24T02:42:07.934Z,1.20
2022-09-24T02:44:42.337Z,1.48
2022-09-24T02:47:24.531Z,1.02
2022-09-24T02:50:03.681Z,0.98
2022-09-24T02:52:32.735Z,1.10
2022-09-24T02:55:01.733Z,1.27
2022-09-24T02:57:32.691Z,0.73
2022-09-24T03:00:02.282Z,0.70
2022-09-24T03:02:40.035Z,0.68
2022-09-24T03:05:17.619Z,1.92
2022-09-24T03:07:47.058Z,1.08
2022-09-24T03:10:16.256Z,0.40
2022-09-24T03:12:45.468Z,1.77
2022-09-24T03:15:14.545Z,0.80
2022-09-24T03:17:45.687Z,0.77
2022-09-24T03:20:21.622Z,1.13
2022-09-24T03:22:53.197Z,0.50
2022-09-24T03:25:22.888Z,0.70
2022-09-24T03:27:51.916Z,1.10
2022-09-24T03:30:34.023Z,1.63
2022-09-24T03:33:05.436Z,0.68
2022-09-24T03:35:34.721Z,0.50
2022-09-24T03:38:03.794Z,0.77
2022-09-24T03:40:32.905Z,0.82
2022-09-24T03:43:02.121Z,0.75
2022-09-24T03:45:31.523Z,0.82
2022-09-24T03:48:00.814Z,0.30
2022-09-24T03:50:31.889Z,0.98
2022-09-24T03:53:00.992Z,1.08
2022-09-24T03:55:29.982Z,1.02
2022-09-24T03:57:59.154Z,1.85
2022-09-24T04:00:28.198Z,0.90
2022-09-24T04:03:08.011Z,1.58
2022-09-24T04:05:39.750Z,0.70
2022-09-24T04:08:13.897Z,1.05
2022-09-24T04:10:43.662Z,1.52
2022-09-24T04:13:13.286Z,1.40
2022-09-24T04:15:42.483Z,1.00
2022-09-24T04:18:12.331Z,2.75
2022-09-24T04:20:43.703Z,0.93
2022-09-24T04:23:18.118Z,0.95
2022-09-24T04:25:47.586Z,1.92
2022-09-24T04:28:16.613Z,1.00
2022-09-24T04:30:45.783Z,1.30
2022-09-24T04:33:14.907Z,0.80
2022-09-24T04:35:47.737Z,0.90
2022-09-24T04:38:18.891Z,1.60
2022-09-24T04:40:48.023Z,1.25
2022-09-24T04:43:18.699Z,0.50
2022-09-24T04:45:48.513Z,1.35
2022-09-24T04:48:23.794Z,0.88
2022-09-24T04:51:06.838Z,1.27
2022-09-24T04:53:36.980Z,0.75
2022-09-24T04:56:11.582Z,0.40
2022-09-24T04:58:40.938Z,1.20
2022-09-24T05:01:10.381Z,1.40
2022-09-24T05:06:16.888Z,0.63
2022-09-24T05:08:45.989Z,1.23
2022-09-24T05:11:15.040Z,0.57
2022-09-24T05:13:45.940Z,2.30
2022-09-24T05:16:15.085Z,0.70
2022-09-24T05:18:44.260Z,0.90
2022-09-24T05:21:18.323Z,0.38
2022-09-24T05:23:49.432Z,0.82
2022-09-24T05:26:31.519Z,0.60
2022-09-24T05:29:00.791Z,0.63
2022-09-24T05:31:30.738Z,1.17
2022-09-24T05:34:05.333Z,0.85
2022-09-24T05:36:34.318Z,1.70
2022-09-24T05:39:05.942Z,0.85
2022-09-24T05:44:04.402Z,1.50
2022-09-24T05:46:39.300Z,2.65
2022-09-24T05:49:08.483Z,2.10
2022-09-24T05:51:37.497Z,2.20
2022-09-24T05:54:09.185Z,1.88
2022-09-24T05:56:38.345Z,1.00
2022-09-24T05:59:07.684Z,2.35
2022-09-24T06:01:37.411Z,0.82
2022-09-24T06:04:09.023Z,2.03
2022-09-24T06:06:38.680Z,2.33
2022-09-24T06:09:09.665Z,3.58
2022-09-24T06:11:43.800Z,0.50
2022-09-24T06:14:18.330Z,0.50
2022-09-24T06:16:47.341Z,0.40
2022-09-24T06:19:16.593Z,0.90
2022-09-24T06:21:45.744Z,1.40
2022-09-24T06:24:21.993Z,0.73
2022-09-24T06:26:51.842Z,1.25
2022-09-24T06:29:20.836Z,0.43
2022-09-24T06:31:50.031Z,0.40
2022-09-24T06:34:18.991Z,0.60
2022-09-24T06:36:48.001Z,1.45
2022-09-24T06:39:19.254Z,0.50
2022-09-24T06:41:50.081Z,1.13
2022-09-24T06:44:19.321Z,0.70
2022-09-24T06:46:48.754Z,0.80
2022-09-24T06:49:17.892Z,1.38
2022-09-24T06:51:46.923Z,0.98
2022-09-24T06:54:16.278Z,2.03
2022-09-24T06:56:47.478Z,2.25
2022-09-24T06:59:21.698Z,1.00
2022-09-24T07:01:50.818Z,1.15
2022-09-24T07:04:20.375Z,1.55
2022-09-24T07:07:02.557Z,1.98
2022-09-24T07:09:31.597Z,2.33
2022-09-24T07:12:05.045Z,1.77
2022-09-24T07:14:34.176Z,1.13
2022-09-24T07:17:03.188Z,1.73
2022-09-24T07:19:32.322Z,0.50
2022-09-24T07:22:01.361Z,1.15
2022-09-24T07:24:30.524Z,2.20
2022-09-24T07:27:01.607Z,0.80
2022-09-24T07:29:30.690Z,2.05
2022-09-24T07:32:01.272Z,1.70
2022-09-24T07:34:30.570Z,0.82
2022-09-24T07:37:00.473Z,0.50
2022-09-24T07:39:35.497Z,3.40
2022-09-24T07:42:07.490Z,1.27
2022-09-24T07:44:37.668Z,1.67
2022-09-24T07:47:06.807Z,1.33
2022-09-24T07:49:42.317Z,0.93
2022-09-24T07:52:12.166Z,2.22
2022-09-24T07:54:41.198Z,0.77
2022-09-24T07:57:14.705Z,1.30
2022-09-24T07:59:44.394Z,0.95
2022-09-24T08:02:19.827Z,1.40
2022-09-24T08:04:49.192Z,1.90
2022-09-24T08:07:18.779Z,1.83
2022-09-24T08:09:47.884Z,0.68
2022-09-24T08:12:19.331Z,1.70
2022-09-24T08:14:48.520Z,1.00
2022-09-24T08:17:17.489Z,1.35
2022-09-24T08:19:46.562Z,1.45
2022-09-24T08:22:16.163Z,1.90
2022-09-24T08:24:45.491Z,0.40
2022-09-24T08:27:17.288Z,1.88
2022-09-24T08:29:48.738Z,3.13
2022-09-24T08:32:17.865Z,2.50
2022-09-24T08:34:46.917Z,1.70
2022-09-24T08:37:16.067Z,1.40
2022-09-24T08:39:45.085Z,1.17
2022-09-24T08:42:21.154Z,1.63
2022-09-24T08:45:07.035Z,1.85
2022-09-24T08:47:42.683Z,3.47
2022-09-24T08:50:17.746Z,1.80
2022-09-24T08:52:58.423Z,1.38
2022-09-24T08:55:33.567Z,2.35
2022-09-24T08:58:22.525Z,1.92
2022-09-24T09:01:00.529Z,1.23
2022-09-24T09:03:37.328Z,2.97
2022-09-24T09:06:13.672Z,1.45
2022-09-24T09:09:06.813Z,1.75
2022-09-24T09:11:39.664Z,1.33
2022-09-24T09:14:17.264Z,3.42
2022-09-24T09:16:51.471Z,2.17
2022-09-24T09:19:25.958Z,0.75
2022-09-24T09:21:59.009Z,1.88
2022-09-24T09:24:44.216Z,2.90
2022-09-24T09:27:16.462Z,1.67
2022-09-24T09:29:53.462Z,1.05
2022-09-24T09:32:38.913Z,3.63
2022-09-24T09:35:19.103Z,3.65
2022-09-24T09:37:57.676Z,2.47
2022-09-24T09:40:37.700Z,2.13
2022-09-24T09:43:11.520Z,3.13
2022-09-24T09:46:01.406Z,2.45
2022-09-24T09:48:43.854Z,2.03
2022-09-24T09:51:22.238Z,1.95
2022-09-24T09:53:58.603Z,1.77
2022-09-24T09:56:30.923Z,2.03
2022-09-24T09:59:07.165Z,3.97
2022-09-24T10:01:40.195Z,2.33
2022-09-24T10:04:30.525Z,0.73
2022-09-24T10:07:16.062Z,0.95
2022-09-24T10:09:46.738Z,1.15
2022-09-24T10:12:20.863Z,1.67
2022-09-24T10:14:59.782Z,2.42
2022-09-24T10:17:38.631Z,0.60
2022-09-24T10:20:19.190Z,0.80
2022-09-24T10:22:53.309Z,1.58
2022-09-24T10:25:26.240Z,1.02
2022-09-24T10:28:18.840Z,0.93
2022-09-24T10:31:02.011Z,0.65
2022-09-24T10:33:39.665Z,1.00
2022-09-24T10:36:17.517Z,1.33
2022-09-24T10:38:51.912Z,0.90
2022-09-24T10:41:28.633Z,1.33
2022-09-24T10:44:08.490Z,1.05
2022-09-24T10:47:09.701Z,0.90
2022-09-24T10:49:54.158Z,1.25
2022-09-24T10:52:38.424Z,0.93
2022-09-24T10:55:21.530Z,2.50
2022-09-24T10:58:02.486Z,1.13
2022-09-24T11:00:40.976Z,4.00
2022-09-24T11:03:52.721Z,0.98
2022-09-24T11:06:34.126Z,2.08
2022-09-24T11:09:19.238Z,1.85
2022-09-24T11:12:02.620Z,1.30
2022-09-24T11:14:56.415Z,2.92
2022-09-24T11:17:35.261Z,3.53
2022-09-24T11:20:30.145Z,0.95
2022-09-24T11:23:37.982Z,0.70
2022-09-24T11:26:24.402Z,1.38
2022-09-24T11:29:17.337Z,1.02
2022-09-24T11:31:59.324Z,1.45
2022-09-24T11:37:28.715Z,1.77
2022-09-24T11:40:11.252Z,2.35
2022-09-24T11:42:56.049Z,1.02
2022-09-24T11:45:53.961Z,2.13
2022-09-24T11:48:41.744Z,1.60
2022-09-24T11:51:25.986Z,1.05
2022-09-24T11:54:00.557Z,0.85
2022-09-24T11:56:34.582Z,2.08
2022-09-24T11:59:19.142Z,1.77
2022-09-24T12:02:00.732Z,0.70
2022-09-24T12:04:41.947Z,0.88
2022-09-24T12:07:20.492Z,1.60
2022-09-24T12:09:56.020Z,1.63
2022-09-24T12:12:29.031Z,1.42
2022-09-24T12:15:04.270Z,2.10
2022-09-24T12:17:40.390Z,1.35
2022-09-24T12:20:20.192Z,3.78
2022-09-24T12:22:59.525Z,2.55
2022-09-24T12:25:31.884Z,1.55
2022-09-24T12:28:07.583Z,3.33
2022-09-24T12:31:02.515Z,2.00
2022-09-24T12:33:37.380Z,2.08
2022-09-24T12:36:17.320Z,3.67
2022-09-24T12:38:49.655Z,1.75
2022-09-24T12:41:29.547Z,2.38
2022-09-24T12:44:08.341Z,1.75
2022-09-24T12:46:42.690Z,1.52
2022-09-24T12:56:45.526Z,3.17
2022-09-24T12:59:27.060Z,2.53
2022-09-24T13:01:56.640Z,2.80
2022-09-24T13:04:30.749Z,2.28
2022-09-24T13:07:05.068Z,1.48
2022-09-24T13:09:41.764Z,1.65
2022-09-24T13:12:31.026Z,1.20
2022-09-24T13:15:03.734Z,0.98
2022-09-24T13:17:35.763Z,1.92
2022-09-24T13:20:08.473Z,2.15
2022-09-24T13:22:39.984Z,1.95
2022-09-24T13:25:27.867Z,3.35
2022-09-24T13:28:07.217Z,4.82
2022-09-24T13:30:43.286Z,1.52
2022-09-24T13:33:23.706Z,2.97
2022-09-24T13:36:06.983Z,2.65
2022-09-24T13:38:39.313Z,2.08
2022-09-24T13:41:24.136Z,1.20
2022-09-24T13:44:02.080Z,1.25
2022-09-24T13:46:32.119Z,2.40
2022-09-24T13:49:06.137Z,1.70
2022-09-24T13:51:40.198Z,2.83
2022-09-24T13:54:24.869Z,3.78
2022-09-24T13:57:11.980Z,2.70
2022-09-24T13:59:43.189Z,2.38
2022-09-24T14:02:27.225Z,1.90
2022-09-24T14:04:59.236Z,2.55
2022-09-24T14:07:33.455Z,3.22
2022-09-24T14:10:13.775Z,2.92
2022-09-24T14:12:42.919Z,2.40
2022-09-24T14:15:17.215Z,3.30
2022-09-24T14:17:58.569Z,2.50
2022-09-24T14:20:31.304Z,2.47
2022-09-24T14:23:07.029Z,1.40
2022-09-24T14:25:39.418Z,1.77
2022-09-24T14:28:08.622Z,2.05
2022-09-24T14:30:49.177Z,3.42
2022-09-24T14:33:21.462Z,2.97
2022-09-24T14:35:53.702Z,2.58
2022-09-24T14:38:28.893Z,2.58
2022-09-24T14:41:01.981Z,3.50
2022-09-24T14:43:39.080Z,2.08
2022-09-24T14:46:18.002Z,2.22
2022-09-24T14:48:47.292Z,3.28
2022-09-24T14:51:30.851Z,4.72
2022-09-24T14:54:01.596Z,2.33
2022-09-24T14:56:38.683Z,3.00
2022-09-24T14:59:17.333Z,5.28
2022-09-24T15:01:48.688Z,5.55
2022-09-24T15:04:28.626Z,3.80
2022-09-24T15:06:57.942Z,4.25
2022-09-24T15:09:29.168Z,3.88
2022-09-24T15:12:09.444Z,2.22
2022-09-24T15:14:38.674Z,4.15
2022-09-24T15:17:28.425Z,2.65
2022-09-24T15:20:00.384Z,3.17
2022-09-24T15:22:31.553Z,4.95
2022-09-24T15:25:02.470Z,2.75
2022-09-24T15:27:34.423Z,2.90
2022-09-24T15:30:04.889Z,3.47
2022-09-24T15:32:41.324Z,2.35
2022-09-24T15:35:12.282Z,4.10
2022-09-24T15:37:42.075Z,3.38
2022-09-24T15:40:19.722Z,3.72
2022-09-24T15:42:48.977Z,3.42
2022-09-24T15:45:20.923Z,3.25
2022-09-24T15:47:52.906Z,2.63
2022-09-24T15:52:55.694Z,2.35
2022-09-24T15:55:25.763Z,4.45
2022-09-24T15:57:54.941Z,2.38
2022-09-24T16:00:25.617Z,5.47
2022-09-24T16:03:03.948Z,2.97
2022-09-24T16:05:33.295Z,2.70
2022-09-24T16:08:02.912Z,3.47
2022-09-24T16:10:32.078Z,2.22
2022-09-24T16:13:02.631Z,2.10
2022-09-24T16:15:31.852Z,1.80
2022-09-24T16:20:40.890Z,3.15
2022-09-24T16:23:15.942Z,2.35
2022-09-24T16:25:57.986Z,2.78
2022-09-24T16:28:28.711Z,2.88
2022-09-24T16:30:58.436Z,3.03
2022-09-24T16:33:29.532Z,2.63
2022-09-24T16:36:03.873Z,1.92
2022-09-24T16:38:36.455Z,3.35
2022-09-24T16:41:05.930Z,3.60
2022-09-24T16:43:35.633Z,3.00
2022-09-24T16:46:11.953Z,3.13
2022-09-24T16:48:44.387Z,3.10
2022-09-24T16:51:14.105Z,2.80
2022-09-24T16:53:48.403Z,3.60
2022-09-24T16:56:19.209Z,2.05
2022-09-24T16:58:48.869Z,3.70
2022-09-24T17:01:23.810Z,2.33
2022-09-24T17:03:56.714Z,7.05
2022-09-24T17:06:32.340Z,3.70
2022-09-24T17:09:14.577Z,3.13
2022-09-24T17:11:46.344Z,4.57
2022-09-24T17:16:45.130Z,3.15
2022-09-24T17:19:21.546Z,3.28
2022-09-24T17:21:53.051Z,2.25
2022-09-24T17:24:23.110Z,3.88
2022-09-24T17:26:53.638Z,3.50
2022-09-24T17:29:28.889Z,3.17
2022-09-24T17:32:07.924Z,3.92
2022-09-24T17:34:43.450Z,1.50
2022-09-24T17:37:15.013Z,4.82
2022-09-24T17:39:44.137Z,3.97
2022-09-24T17:42:13.248Z,3.25
2022-09-24T17:44:42.434Z,3.83
2022-09-24T17:47:12.025Z,3.22
2022-09-24T17:49:43.332Z,2.72
2022-09-24T17:52:13.049Z,2.60
2022-09-24T17:54:44.378Z,2.75
2022-09-24T17:57:14.416Z,3.60
2022-09-24T17:59:44.441Z,2.05
2022-09-24T18:02:13.605Z,2.58
2022-09-24T18:04:45.103Z,3.92
2022-09-24T18:07:19.473Z,2.55
2022-09-24T18:09:51.899Z,1.80
2022-09-24T18:12:21.229Z,3.40
2022-09-24T18:14:55.333Z,2.28
2022-09-24T18:17:24.452Z,2.05
2022-09-24T18:19:55.738Z,2.88
2022-09-24T18:22:24.935Z,1.90
2022-09-24T18:24:54.418Z,2.90
2022-09-24T18:27:23.678Z,2.55
2022-09-24T18:29:52.912Z,2.10
2022-09-24T18:32:23.556Z,2.38
2022-09-24T18:34:59.868Z,3.72
2022-09-24T18:37:41.189Z,3.03
2022-09-24T18:40:12.290Z,4.00
2022-09-24T18:42:41.534Z,4.53
2022-09-24T18:45:11.495Z,4.47
2022-09-24T18:47:45.789Z,2.85
2022-09-24T18:50:16.975Z,2.13
2022-09-24T18:52:51.294Z,2.30
2022-09-24T18:55:21.120Z,3.47
2022-09-24T18:57:50.865Z,4.13
2022-09-24T19:00:32.717Z,4.82
2022-09-24T19:03:01.944Z,2.83
2022-09-24T19:05:32.997Z,2.97
2022-09-24T19:08:02.428Z,2.47
2022-09-24T19:10:31.578Z,3.13
2022-09-24T19:13:07.211Z,2.13
2022-09-24T19:15:38.274Z,3.35
2022-09-24T19:18:08.153Z,3.87
2022-09-24T19:20:40.918Z,3.10
2022-09-24T19:23:10.741Z,3.25
2022-09-24T19:25:46.583Z,2.03
2022-09-24T19:28:16.198Z,4.47
2022-09-24T19:30:47.313Z,2.30
2022-09-24T19:33:18.255Z,2.33
2022-09-24T19:35:57.817Z,2.40
2022-09-24T19:38:29.648Z,3.95
2022-09-24T19:41:03.065Z,1.48
2022-09-24T19:43:38.766Z,4.55
2022-09-24T19:46:19.926Z,5.03
2022-09-24T19:48:51.163Z,2.00
2022-09-24T19:51:23.746Z,1.77
2022-09-24T19:53:54.462Z,2.38
2022-09-24T19:56:25.029Z,1.67
2022-09-24T19:58:55.708Z,5.22
2022-09-24T20:01:27.673Z,2.70
2022-09-24T20:03:57.565Z,3.42
2022-09-24T20:06:30.806Z,4.55
2022-09-24T20:09:00.187Z,2.97
2022-09-24T20:11:32.065Z,3.35
2022-09-24T20:14:08.501Z,2.83
2022-09-24T20:16:44.208Z,1.30
2022-09-24T20:19:14.346Z,1.95
2022-09-24T20:21:46.883Z,1.90
2022-09-24T20:24:16.334Z,2.83
2022-09-24T20:26:58.309Z,2.47
2022-09-24T20:29:27.669Z,2.75
2022-09-24T20:31:57.335Z,2.65
2022-09-24T20:34:33.061Z,1.60
2022-09-24T20:37:05.739Z,3.45
2022-09-24T20:39:35.935Z,3.63
2022-09-24T20:42:05.463Z,1.83
2022-09-24T20:44:34.993Z,2.10
2022-09-24T20:47:04.096Z,1.98
2022-09-24T20:49:39.043Z,2.25
2022-09-24T20:52:10.583Z,3.00
2022-09-24T20:54:39.744Z,4.82
2022-09-24T20:57:08.850Z,2.60
2022-09-24T20:59:38.030Z,2.65
2022-09-24T21:02:07.273Z,2.97
2022-09-24T21:04:36.676Z,1.90
2022-09-24T21:07:05.748Z,1.90
2022-09-24T21:09:37.267Z,2.92
2022-09-24T21:12:18.237Z,1.55
2022-09-24T21:14:47.295Z,1.65
2022-09-24T21:17:16.311Z,1.20
2022-09-24T21:19:45.486Z,1.73
2022-09-24T21:22:20.067Z,3.63
2022-09-24T21:24:52.510Z,2.33
2022-09-24T21:27:21.625Z,2.88
2022-09-24T21:29:50.729Z,3.00
2022-09-24T21:32:19.897Z,4.07
2022-09-24T21:34:49.131Z,3.38
2022-09-24T21:37:18.177Z,4.55
2022-09-24T21:39:48.214Z,6.20
2022-09-24T21:42:19.307Z,5.15
2022-09-24T21:44:48.507Z,3.63
2022-09-24T21:47:17.692Z,3.22
2022-09-24T21:49:47.874Z,1.60
2022-09-24T21:52:17.100Z,1.38
2022-09-24T21:54:46.043Z,2.70
2022-09-24T21:57:15.000Z,1.73
2022-09-24T22:00:09.759Z,2.83
2022-09-24T22:02:42.642Z,2.63
2022-09-24T22:05:13.093Z,1.88
2022-09-24T22:07:42.939Z,2.47
2022-09-24T22:10:12.627Z,2.03
2022-09-24T22:12:43.456Z,2.35
2022-09-24T22:15:14.598Z,1.33
2022-09-24T22:17:43.765Z,1.52
2022-09-24T22:20:12.793Z,3.53
2022-09-24T22:22:42.245Z,1.23
2022-09-24T22:25:12.750Z,1.88
2022-09-24T22:27:45.669Z,1.13
2022-09-24T22:30:22.107Z,1.75
2022-09-24T22:32:56.306Z,1.67
2022-09-24T22:35:43.105Z,0.70
2022-09-24T22:38:12.706Z,2.60
2022-09-24T22:40:41.968Z,0.95
2022-09-24T22:43:11.537Z,1.30
2022-09-24T22:45:47.685Z,1.83
2022-09-24T22:48:16.903Z,1.83
2022-09-24T22:50:45.958Z,0.90
2022-09-24T22:53:20.257Z,2.70
2022-09-24T22:55:52.698Z,1.98
2022-09-24T22:58:22.146Z,3.50
2022-09-24T23:00:53.225Z,1.17
2022-09-24T23:08:55.819Z,2.70
2022-09-24T23:11:33.065Z,2.65
2022-09-24T23:14:03.498Z,0.93
2022-09-24T23:16:36.862Z,1.83
2022-09-24T23:19:13.134Z,2.17
2022-09-24T23:21:42.320Z,2.00
2022-09-24T23:24:15.653Z,2.17
2022-09-24T23:26:45.534Z,3.08
2022-09-24T23:29:16.868Z,3.10
2022-09-24T23:31:49.804Z,1.75
2022-09-24T23:34:19.876Z,1.58
2022-09-24T23:36:48.899Z,2.58
2022-09-24T23:39:17.927Z,1.23
2022-09-24T23:41:47.062Z,1.63
2022-09-24T23:44:16.993Z,1.30
2022-09-24T23:46:54.346Z,1.92
2022-09-24T23:51:58.974Z,3.85
2022-09-24T23:54:28.042Z,3.38
2022-09-24T23:57:05.949Z,3.35
2022-09-24T23:59:35.149Z,2.75
